Foundation Center - Knowledge to build on.
Home Profile Search Site Map Ask Us Donate Now
About Us Locations Newsletters Press Room PND
 
Find Funders

Fact Finder
- Foundation Directory Online Free
- 990 Finder
- Trend Tracker

Identify Funding Sources
- Foundation Directory Online
- Foundation Grants to Individuals Online
- Print Funding Directories
- Requests for Proposals
- Associates Program
- Map of International Grants

Related Tools
- Common Grant Application Forms
- Prospect Worksheets
- Grants Classification

Check Statistics
- Top Funders
- Grantmaker Stats
- Grants Stats

Local Resources
- Atlanta
- Cleveland
- New York
- San Francisco
- Washington, DC
- Funding Information Network
Top Funders

Top 100 U.S. Foundations by Asset Size

The list below includes the 100 largest U.S. grantmaking foundations ranked by the market value of their assets, based on the most current audited financial data in the Foundation Center's database as of August 1, 2015. Fiscal records will be updated when more recent audited financial information is obtained.

Rank

Name/(state)

Assets

As of
Fiscal Year
End Date

1.Bill & Melinda Gates Foundation (WA) $41,310,207,525 12/31/2013
2.Ford Foundation (NY) 12,259,961,589 12/31/2013
3.J. Paul Getty Trust (CA) 11,110,918,337 06/30/2013
4.The Robert Wood Johnson Foundation (NJ) 10,173,403,442 12/31/2013
5.The William and Flora Hewlett Foundation (CA) 9,042,503,000 12/31/2014
6.W. K. Kellogg Foundation (MI) 8,621,183,526 08/31/2014
7.Lilly Endowment Inc. (IN) 7,699,211,116 12/31/2013
8.The David and Lucile Packard Foundation (CA) 6,902,501,278 12/31/2013
9.Gordon and Betty Moore Foundation (CA) 6,417,833,620 12/31/2013
10.The John D. and Catherine T. MacArthur Foundation (IL) 6,323,307,217 12/31/2013
11.The Andrew W. Mellon Foundation (NY) 6,188,229,000 12/31/2013
12.Bloomberg Philanthropies (NY) 5,402,611,056 12/31/2013
13.Silicon Valley Community Foundation (CA) 4,723,897,000 12/31/2013
14.The Leona M. and Harry B. Helmsley Charitable Trust (NY) 4,241,501,002 03/31/2013
15.The Rockefeller Foundation (NY) 4,121,465,814 12/31/2013
16.Tulsa Community Foundation (OK) 3,729,789,000 12/31/2012
17.The California Endowment (CA) 3,668,459,217 03/31/2014
18.The Kresge Foundation (MI) 3,543,405,167 12/31/2013
19.The Duke Endowment (NC) 3,367,128,863 12/31/2013
20.John Templeton Foundation (PA) 3,359,677,247 12/31/2013
21.Foundation to Promote Open Society (NY) 3,330,839,478 12/31/2013
22.Robert W. Woodruff Foundation, Inc. (GA) 3,119,096,039 12/31/2013
23.Margaret A. Cargill Foundation (MN) 3,094,112,687 12/31/2013
24.Carnegie Corporation of New York (NY) 3,033,694,178 09/30/2013
25.The Annie E. Casey Foundation (MD) 2,933,059,949 12/31/2013
26.The Susan Thompson Buffett Foundation (NE) 2,731,731,558 12/31/2013
27.Charles Stewart Mott Foundation (MI) 2,587,788,238 12/31/2013
28.Walton Family Foundation, Inc. (AR) 2,480,825,574 12/31/2013
29.The New York Community Trust (NY) 2,443,372,250 12/31/2013
30.Conrad N. Hilton Foundation (CA) 2,430,703,442 12/31/2013
31.John S. and James L. Knight Foundation (FL) 2,395,608,862 12/31/2013
32.Richard King Mellon Foundation (PA) 2,343,064,597 12/31/2013
33.The JPB Foundation (NY) 2,318,642,200 12/31/2013
34.Charles and Lynn Schusterman Family Foundation (OK) 2,291,018,311 12/31/2013
35.The William Penn Foundation (PA) 2,283,164,256 12/31/2013
36.Kimbell Art Foundation (TX) 2,254,647,166 12/31/2012
37.Casey Family Programs (WA) 2,241,900,641 12/31/2013
38.The McKnight Foundation (MN) 2,239,101,229 12/31/2013
39.Simons Foundation (NY) 2,170,686,615 12/31/2013
40.Greater Kansas City Community Foundation (MO) 2,151,222,919 12/31/2013
41.The Cleveland Foundation (OH) 2,132,806,744 12/31/2013
42.The Harry and Jeanette Weinberg Foundation, Inc. (MD) 2,127,938,700 02/28/2014
43.Ewing Marion Kauffman Foundation (MO) 2,125,039,000 12/31/2013
44.The Wyss Foundation (DC) 2,115,965,902 12/31/2013
45.The Chicago Community Trust (IL) 2,087,011,848 09/30/2013
46.Eli & Edythe Broad Foundation (CA) 1,889,617,384 12/31/2013
47.Alfred P. Sloan Foundation (NY) 1,888,720,791 12/31/2013
48.The James Irvine Foundation (CA) 1,887,715,935 12/31/2013
49.Doris Duke Charitable Foundation (NY) 1,859,405,732 12/31/2013
50.Houston Endowment Inc. (TX) 1,727,247,300 12/31/2013
51.The Oregon Community Foundation (OR) 1,698,892,336 12/31/2013
52.Annenberg Foundation (CA) 1,690,604,187 12/31/2013
53.Laura and John Arnold Foundation (TX) 1,648,587,004 12/31/2013
54.The Heinz Endowments (PA) 1,601,995,851 12/31/2013
55.Open Society Institute (NY) 1,590,570,302 12/31/2013
56.Barr Foundation (MA) 1,555,580,555 12/31/2013
57.The Moody Foundation (TX) 1,530,491,198 12/31/2013
58.The Columbus Foundation and Affiliated Organizations (OH) 1,520,768,529 12/31/2012
59.The Wallace Foundation (NY) 1,514,962,198 12/31/2013
60.Joseph B. Whitehead Foundation (GA) 1,432,190,285 12/31/2013
61.Daniels Fund (CO) 1,388,360,517 12/31/2013
62.The Brown Foundation, Inc. (TX) 1,375,012,451 06/30/2014
63.The Starr Foundation (NY) 1,371,638,088 12/31/2013
64.The Samuel Roberts Noble Foundation, Inc. (OK) 1,322,307,756 12/31/2013
65.California Community Foundation (CA) 1,315,930,000 06/30/2013
66.Marin Community Foundation (CA) 1,300,134,779 06/30/2013
67.Foundation For The Carolinas (NC) 1,276,583,309 12/31/2013
68.Lumina Foundation (IN) 1,258,939,683 12/31/2013
69.W. M. Keck Foundation (CA) 1,254,540,000 12/31/2013
70.The San Francisco Foundation (CA) 1,183,262,000 06/30/2013
71.George Lucas Family Foundation (CA) 1,156,472,634 12/31/2013
72.Bat Hanadiv Foundation No. 3 (NY) 1,134,111,098 12/31/2013
73.Diana Davis Spencer Foundation (MD) 1,130,964,532 12/31/2013
74.The Anschutz Foundation (CO) 1,126,706,872 11/30/2013
75.Druckenmiller Foundation (NY) 1,124,511,100 11/30/2014
76.The Carl Victor Page Memorial Foundation (CA) 1,119,754,597 12/31/2013
77.The Ahmanson Foundation (CA) 1,108,002,312 10/31/2013
78.S & G Foundation, Inc. (NY) 1,100,776,701 06/30/2014
79.Cummings Foundation, Inc. (MA) 1,085,901,102 12/31/2013
80.The Pittsburgh Foundation (PA) 1,073,171,203 12/31/2013
81.M. J. Murdock Charitable Trust (WA) 1,048,190,889 12/31/2013
82.Shimon ben Joseph Foundation (CA) 1,041,590,492 12/31/2013
83.The Brin Wojcicki Foundation (CA) 1,033,586,191 12/31/2013
84.The J. E. and L. E. Mabee Foundation, Inc. (OK) 1,015,687,642 08/31/2014
85.The Broad Art Foundation (CA) 1,005,736,583 12/31/2013
86.Communities Foundation of Texas, Inc. (TX) 982,331,000 06/30/2013
87.The Edna McConnell Clark Foundation (NY) 965,338,606 09/30/2013
88.The California Wellness Foundation (CA) 939,762,194 12/31/2013
89.The Joyce Foundation (IL) 936,451,953 12/31/2013
90.Surdna Foundation, Inc. (NY) 929,596,379 06/30/2013
91.The Community Foundation for Greater Atlanta (GA) 929,200,310 12/31/2013
92.The Lynde and Harry Bradley Foundation, Inc. (WI) 922,303,709 12/31/2013
93.Otto Bremer Foundation (MN) 898,842,764 12/31/2013
94.Boston Foundation, Inc. (MA) 896,216,000 06/30/2013
95.Hall Family Foundation (MO) 890,800,000 12/31/2014
96.Bush Foundation (MN) 888,876,731 12/31/2013
97.The Ford Family Foundation (OR) 877,924,758 12/31/2013
98.Rockefeller Brothers Fund, Inc. (NY) 870,572,218 12/31/2013
99.The Henry Luce Foundation, Inc. (NY) 867,417,767 12/31/2013
100.Dalio Foundation, Inc. (CT) 842,052,652 12/31/2013

More Rankings
 
- Top U.S. Foundations by Asset Size
- Top U.S. Foundations by Total Giving
- Top Corporate Grantmakers by Asset Size
- Top Corporate Grantmakers by Total Giving
- Largest Community Foundations by Asset Size
- Largest Community Foundations by Total Giving
foundationcenter.org
© Foundation Center
All Rights Reserved.
Privacy Policy